createdAt,value
2022-07-26T00:00:37.693Z,97923.94
2022-07-26T00:03:07.979Z,97930.66
2022-07-26T00:05:39.046Z,97927.00
2022-07-26T00:08:13.367Z,97934.28
2022-07-26T00:10:51.658Z,97931.94
2022-07-26T00:13:24.245Z,97932.78
2022-07-26T00:15:58.452Z,97936.94
2022-07-26T00:18:29.048Z,97944.69
2022-07-26T00:20:59.228Z,97936.66
2022-07-26T00:23:31.061Z,97940.53
2022-07-26T00:26:03.777Z,97940.56
2022-07-26T00:28:34.183Z,97945.72
2022-07-26T00:31:04.552Z,97950.31
2022-07-26T00:33:34.712Z,97947.47
2022-07-26T00:36:04.851Z,97951.84
2022-07-26T00:38:35.085Z,97950.44
2022-07-26T00:41:09.435Z,97937.19
2022-07-26T00:43:39.906Z,97942.31
2022-07-26T00:46:11.401Z,97930.88
2022-07-26T00:48:41.547Z,97938.44
2022-07-26T00:51:12.115Z,97943.88
2022-07-26T00:53:42.126Z,97944.91
2022-07-26T00:56:17.391Z,97940.13
2022-07-26T00:58:47.859Z,97946.06
2022-07-26T01:01:18.074Z,97951.06
2022-07-26T01:03:48.658Z,97951.25
2022-07-26T01:06:18.942Z,97947.84
2022-07-26T01:08:51.387Z,97945.84
2022-07-26T01:11:24.628Z,97945.25
2022-07-26T01:13:55.273Z,97944.19
2022-07-26T01:16:25.966Z,97945.19
2022-07-26T01:18:56.151Z,97945.56
2022-07-26T01:21:32.418Z,97946.50
2022-07-26T01:24:02.724Z,97946.41
2022-07-26T01:26:32.765Z,97937.63
2022-07-26T01:29:02.992Z,97949.09
2022-07-26T01:31:33.317Z,97946.00
2022-07-26T01:34:03.403Z,97968.31
2022-07-26T01:36:36.331Z,97974.81
2022-07-26T01:39:10.183Z,97977.28
2022-07-26T01:41:40.331Z,97988.19
2022-07-26T01:44:11.056Z,97990.50
2022-07-26T01:46:41.539Z,97990.25
2022-07-26T01:49:11.806Z,97983.97
2022-07-26T01:51:44.581Z,97986.25
2022-07-26T01:54:16.090Z,97993.50
2022-07-26T01:56:52.828Z,97978.47
2022-07-26T01:59:23.181Z,97978.19
2022-07-26T02:01:53.279Z,97984.91
2022-07-26T02:04:35.858Z,97977.44
2022-07-26T02:07:10.238Z,97985.94
2022-07-26T02:09:43.371Z,97978.41
2022-07-26T02:12:13.502Z,97966.25
2022-07-26T02:14:44.075Z,97968.81
2022-07-26T02:17:14.301Z,97966.25
2022-07-26T02:19:44.641Z,97964.97
2022-07-26T02:22:17.685Z,97969.88
2022-07-26T02:24:47.779Z,97967.03
2022-07-26T02:27:18.186Z,97972.97
2022-07-26T02:29:48.463Z,97972.22
2022-07-26T02:32:18.491Z,97966.50
2022-07-26T02:34:48.623Z,97962.06
2022-07-26T02:37:21.571Z,97966.78
2022-07-26T02:39:51.671Z,97954.34
2022-07-26T02:42:21.809Z,97961.13
2022-07-26T02:44:51.945Z,97961.91
2022-07-26T02:47:21.970Z,97958.06
2022-07-26T02:49:52.107Z,97958.28
2022-07-26T02:52:24.811Z,97957.50
2022-07-26T02:54:54.852Z,97959.06
2022-07-26T02:57:24.860Z,97957.78
2022-07-26T02:59:54.910Z,97959.56
2022-07-26T03:02:25.199Z,97957.56
2022-07-26T03:04:55.262Z,97953.94
2022-07-26T03:07:27.906Z,97951.34
2022-07-26T03:09:58.302Z,97950.56
2022-07-26T03:12:29.016Z,97947.25
2022-07-26T03:14:59.009Z,97953.69
2022-07-26T03:17:29.690Z,97958.09
2022-07-26T03:20:03.062Z,97961.16
2022-07-26T03:22:35.872Z,97952.94
2022-07-26T03:25:06.697Z,97955.00
2022-07-26T03:27:37.783Z,97955.53
2022-07-26T03:30:09.771Z,97956.03
2022-07-26T03:32:39.897Z,97970.03
2022-07-26T03:35:11.721Z,97964.84
2022-07-26T03:37:46.245Z,97961.44
2022-07-26T03:40:17.974Z,97970.50
2022-07-26T03:42:48.683Z,97966.88
2022-07-26T03:45:19.350Z,97973.34
2022-07-26T03:47:49.494Z,97965.28
2022-07-26T03:50:19.557Z,97967.84
2022-07-26T03:52:52.420Z,97967.34
2022-07-26T03:55:35.170Z,97971.09
2022-07-26T03:58:05.372Z,97972.13
2022-07-26T04:00:35.602Z,97977.31
2022-07-26T04:03:05.610Z,97977.31
2022-07-26T04:05:36.083Z,97977.31
2022-07-26T04:08:09.096Z,97977.31
2022-07-26T04:10:39.104Z,97977.31
2022-07-26T04:13:09.145Z,97974.44
2022-07-26T04:15:39.234Z,97977.22
2022-07-26T04:18:09.414Z,97975.09
2022-07-26T04:20:39.629Z,97976.13
2022-07-26T04:23:12.498Z,97979.50
2022-07-26T04:25:43.616Z,97985.94
2022-07-26T04:28:15.007Z,97980.41
2022-07-26T04:30:45.549Z,97973.16
2022-07-26T04:33:15.623Z,97978.59
2022-07-26T04:35:45.699Z,97978.75
2022-07-26T04:38:18.658Z,97982.88
2022-07-26T04:40:48.994Z,97986.69
2022-07-26T04:43:19.026Z,97982.53
2022-07-26T04:45:50.111Z,97988.44
2022-07-26T04:48:21.041Z,97979.13
2022-07-26T04:50:51.297Z,97985.53
2022-07-26T04:53:23.947Z,97990.81
2022-07-26T04:55:53.939Z,97990.94
2022-07-26T04:58:23.971Z,97993.09
2022-07-26T05:01:09.558Z,97997.03
2022-07-26T05:03:40.747Z,98001.78
2022-07-26T05:06:11.316Z,97999.50
2022-07-26T05:08:45.731Z,98001.94
2022-07-26T05:11:15.864Z,98007.88
2022-07-26T05:13:45.866Z,98016.44
2022-07-26T05:16:15.856Z,98004.16
2022-07-26T05:18:49.230Z,98010.59
2022-07-26T05:21:21.218Z,98008.81
2022-07-26T05:23:54.189Z,98005.31
2022-07-26T05:26:24.392Z,98013.06
2022-07-26T05:28:54.685Z,98008.88
2022-07-26T05:31:24.910Z,98010.63
2022-07-26T05:33:55.247Z,98010.06
2022-07-26T05:36:25.597Z,98009.63
2022-07-26T05:38:58.507Z,98010.53
2022-07-26T05:41:28.695Z,98012.84
2022-07-26T05:43:59.054Z,98013.22
2022-07-26T05:46:29.437Z,98001.91
2022-07-26T05:48:59.764Z,98015.34
2022-07-26T05:51:30.342Z,98009.34
2022-07-26T05:54:03.156Z,98013.78
2022-07-26T05:56:33.510Z,98022.22
2022-07-26T05:59:03.837Z,98015.94
2022-07-26T06:01:35.050Z,98018.47
2022-07-26T06:04:07.183Z,98009.81
2022-07-26T06:06:37.577Z,98014.16
2022-07-26T06:09:10.207Z,98011.06
2022-07-26T06:11:40.425Z,98007.22
2022-07-26T06:14:10.639Z,98010.78
2022-07-26T06:16:40.967Z,98013.59
2022-07-26T06:19:11.088Z,98016.63
2022-07-26T06:21:42.206Z,98011.88
2022-07-26T06:24:15.196Z,98009.59
2022-07-26T06:26:46.632Z,98014.38
2022-07-26T06:29:16.717Z,98027.47
2022-07-26T06:31:46.794Z,98020.03
2022-07-26T06:34:16.949Z,98014.97
2022-07-26T06:36:47.006Z,98013.44
2022-07-26T06:39:19.626Z,98017.44
2022-07-26T06:41:49.721Z,98020.19
2022-07-26T06:44:25.508Z,98022.88
2022-07-26T06:46:55.576Z,98026.50
2022-07-26T06:49:25.880Z,98026.22
2022-07-26T06:51:57.939Z,98020.91
2022-07-26T06:54:30.691Z,98016.72
2022-07-26T07:04:12.625Z,98021.53
2022-07-26T07:06:42.739Z,98022.91
2022-07-26T07:09:15.093Z,98025.25
2022-07-26T07:11:51.797Z,98031.00
2022-07-26T07:14:26.462Z,98032.78
2022-07-26T07:16:56.650Z,98027.66
2022-07-26T07:19:27.413Z,98020.38
2022-07-26T07:21:57.713Z,98023.00
2022-07-26T07:24:27.772Z,98023.00
2022-07-26T07:27:01.424Z,98026.38
2022-07-26T07:29:31.418Z,98028.69
2022-07-26T07:32:03.566Z,98024.84
2022-07-26T07:34:33.778Z,98025.84
2022-07-26T07:37:04.653Z,98021.66
2022-07-26T07:39:38.720Z,98023.28
2022-07-26T07:42:11.803Z,98020.25
2022-07-26T07:44:41.803Z,98015.34
2022-07-26T07:47:12.179Z,98010.69
2022-07-26T07:49:42.341Z,98013.09
2022-07-26T07:52:12.338Z,98005.84
2022-07-26T07:54:42.393Z,98009.78
2022-07-26T07:57:15.012Z,98010.47
2022-07-26T07:59:45.382Z,98006.66
2022-07-26T08:02:15.891Z,98009.59
2022-07-26T08:04:46.007Z,98009.03
2022-07-26T08:07:16.358Z,98006.13
2022-07-26T08:09:46.854Z,98010.44
2022-07-26T08:12:19.929Z,98005.16
2022-07-26T08:14:50.866Z,98012.84
2022-07-26T08:17:20.955Z,97997.66
2022-07-26T08:19:55.734Z,98005.50
2022-07-26T08:22:29.872Z,98010.56
2022-07-26T08:25:00.495Z,98009.78
2022-07-26T08:27:40.449Z,98007.47
2022-07-26T08:30:13.049Z,98015.75
2022-07-26T08:32:43.142Z,98010.78
2022-07-26T08:35:18.072Z,98017.00
2022-07-26T08:37:50.169Z,98006.66
2022-07-26T08:40:20.362Z,98008.69
2022-07-26T08:42:56.833Z,98009.19
2022-07-26T08:45:30.484Z,98006.03
2022-07-26T08:48:18.928Z,98009.44
2022-07-26T08:50:50.576Z,98003.91
2022-07-26T08:53:20.568Z,98009.81
2022-07-26T08:56:06.445Z,98020.59
2022-07-26T08:58:40.862Z,98012.44
2022-07-26T09:01:15.142Z,98021.03
2022-07-26T09:03:47.826Z,98017.66
2022-07-26T09:06:20.300Z,98020.03
2022-07-26T09:08:55.397Z,98008.88
2022-07-26T09:11:35.549Z,98015.66
2022-07-26T09:14:09.293Z,98018.75
2022-07-26T09:16:40.279Z,98019.91
2022-07-26T09:19:22.387Z,98022.63
2022-07-26T09:21:55.572Z,98018.03
2022-07-26T09:24:37.902Z,98031.16
2022-07-26T09:27:11.566Z,98021.91
2022-07-26T09:29:57.427Z,98027.25
2022-07-26T09:32:29.629Z,98024.16
2022-07-26T09:35:45.327Z,98016.66
2022-07-26T09:38:03.885Z,98023.78
2022-07-26T09:40:37.787Z,98016.31
2022-07-26T09:43:10.114Z,98020.94
2022-07-26T09:45:48.301Z,98033.22
2022-07-26T09:48:52.287Z,98021.22
2022-07-26T09:51:39.276Z,98024.97
2022-07-26T09:54:10.328Z,98024.22
2022-07-26T09:56:50.661Z,98032.28
2022-07-26T09:59:23.912Z,98041.09
2022-07-26T10:01:58.861Z,98038.94
2022-07-26T10:04:30.276Z,98038.75
2022-07-26T10:07:02.063Z,98033.41
2022-07-26T10:09:41.351Z,98030.34
2022-07-26T10:12:16.504Z,98040.88
2022-07-26T10:14:51.346Z,98038.31
2022-07-26T10:17:51.263Z,98042.44
2022-07-26T10:20:50.934Z,98042.72
2022-07-26T10:23:44.687Z,98044.16
2022-07-26T10:26:46.435Z,98045.53
2022-07-26T10:29:30.777Z,98045.81
2022-07-26T10:32:20.334Z,98049.63
2022-07-26T10:34:53.186Z,98044.06
2022-07-26T10:37:30.517Z,98033.69
2022-07-26T10:40:25.534Z,98031.00
2022-07-26T10:42:55.619Z,98039.22
2022-07-26T10:45:27.221Z,98039.84
2022-07-26T10:48:18.583Z,98043.28
2022-07-26T10:50:55.086Z,98051.16
2022-07-26T10:53:28.437Z,98041.66
2022-07-26T10:56:01.551Z,98036.44
2022-07-26T10:58:44.838Z,98044.50
2022-07-26T11:01:15.745Z,98047.19
2022-07-26T11:03:46.858Z,98039.56
2022-07-26T11:06:23.093Z,98046.50
2022-07-26T11:08:53.230Z,98049.81
2022-07-26T11:11:32.948Z,98045.03
2022-07-26T11:14:12.736Z,98033.06
2022-07-26T11:16:45.905Z,98035.88
2022-07-26T11:19:18.322Z,98044.25
2022-07-26T11:21:58.700Z,98040.59
2022-07-26T11:24:29.250Z,98026.03
2022-07-26T11:27:05.568Z,98034.97
2022-07-26T11:29:40.274Z,98028.00
2022-07-26T11:32:21.771Z,98038.75
2022-07-26T11:35:01.748Z,98029.41
2022-07-26T11:37:34.726Z,98042.59
2022-07-26T11:40:04.825Z,98039.34
2022-07-26T11:42:34.889Z,98039.06
2022-07-26T11:45:04.995Z,98036.75
2022-07-26T11:47:35.144Z,98024.47
2022-07-26T11:50:22.714Z,98036.22
2022-07-26T11:52:56.527Z,98032.91
2022-07-26T11:55:31.266Z,98042.34
2022-07-26T11:58:08.919Z,98034.50
2022-07-26T12:00:39.716Z,98045.44
2022-07-26T12:03:09.862Z,98035.16
2022-07-26T12:05:41.859Z,98032.91
2022-07-26T12:08:15.495Z,98037.28
2022-07-26T12:10:45.616Z,98025.81
2022-07-26T12:13:19.017Z,98031.34
2022-07-26T12:15:51.172Z,98037.34
2022-07-26T12:18:34.077Z,98038.19
2022-07-26T12:21:09.279Z,98039.06
2022-07-26T12:23:53.173Z,98037.25
2022-07-26T12:26:25.389Z,98037.13
2022-07-26T12:28:57.058Z,98031.34
2022-07-26T12:31:29.572Z,98022.28
2022-07-26T12:34:00.168Z,98025.91
2022-07-26T12:36:30.872Z,98025.22
2022-07-26T12:39:04.708Z,98033.53
2022-07-26T12:41:37.835Z,98029.91
2022-07-26T12:44:12.002Z,98025.25
2022-07-26T12:46:45.099Z,98024.25
2022-07-26T12:49:15.821Z,98038.00
2022-07-26T12:51:45.926Z,98032.63
2022-07-26T12:54:18.549Z,98021.97
2022-07-26T12:56:48.718Z,98020.63
2022-07-26T12:59:18.832Z,98023.28
2022-07-26T13:01:49.040Z,98029.41
2022-07-26T13:04:19.164Z,98005.63
2022-07-26T13:06:49.179Z,98009.56
2022-07-26T13:09:21.807Z,98007.78
2022-07-26T13:11:51.996Z,98011.31
2022-07-26T13:14:22.163Z,98007.25
2022-07-26T13:16:52.314Z,98015.88
2022-07-26T13:19:22.646Z,98003.38
2022-07-26T13:21:53.212Z,98003.09
2022-07-26T13:24:26.232Z,98013.31
2022-07-26T13:26:57.742Z,98017.38
2022-07-26T13:29:30.849Z,98007.69
2022-07-26T13:32:01.996Z,98003.25
2022-07-26T13:34:35.090Z,98002.31
2022-07-26T13:37:08.230Z,98004.75
2022-07-26T13:39:41.311Z,97995.34
2022-07-26T13:42:11.464Z,97996.28
2022-07-26T13:44:41.505Z,98001.88
2022-07-26T13:47:11.562Z,97990.97
2022-07-26T13:49:41.686Z,97999.09
2022-07-26T13:52:15.684Z,97988.78
2022-07-26T13:54:49.477Z,97985.50
2022-07-26T13:57:19.585Z,97985.63
2022-07-26T13:59:49.597Z,97988.69
2022-07-26T14:02:19.797Z,97979.34
2022-07-26T14:04:50.489Z,97988.50
2022-07-26T14:07:20.467Z,97985.56
2022-07-26T14:09:53.049Z,97984.13
2022-07-26T14:12:23.352Z,97991.09
2022-07-26T14:14:53.333Z,97987.44
2022-07-26T14:17:23.328Z,97988.38
2022-07-26T14:19:53.610Z,97986.69
2022-07-26T14:22:23.732Z,97994.28
2022-07-26T14:24:56.396Z,97990.97
2022-07-26T14:27:26.584Z,97989.50
2022-07-26T14:29:56.578Z,97988.06
2022-07-26T14:32:26.603Z,97987.41
2022-07-26T14:34:56.782Z,97995.16
2022-07-26T14:37:41.465Z,97995.66
2022-07-26T14:40:20.085Z,97999.66
2022-07-26T14:42:50.233Z,97991.19
2022-07-26T14:45:20.395Z,97992.91
2022-07-26T14:47:50.563Z,97992.94
2022-07-26T14:50:22.942Z,97983.94
2022-07-26T14:52:53.442Z,97980.84
2022-07-26T14:55:26.314Z,97975.03
2022-07-26T14:57:56.411Z,97979.16
2022-07-26T15:00:26.555Z,97984.66
2022-07-26T15:02:56.701Z,97976.47
2022-07-26T15:05:27.881Z,97985.19
2022-07-26T15:08:02.756Z,97979.66
2022-07-26T15:10:38.254Z,97979.59
2022-07-26T15:13:10.312Z,97972.31
2022-07-26T15:15:40.275Z,97977.84
2022-07-26T15:18:10.770Z,97973.25
2022-07-26T15:20:42.693Z,97972.94
2022-07-26T15:23:14.661Z,97970.38
2022-07-26T15:25:48.698Z,97964.50
2022-07-26T15:28:19.274Z,97968.59
2022-07-26T15:30:49.375Z,97972.13
2022-07-26T15:33:20.699Z,97961.78
2022-07-26T15:35:53.235Z,97962.88
2022-07-26T15:38:23.333Z,97965.81
2022-07-26T15:40:56.050Z,97955.75
2022-07-26T15:43:43.998Z,97952.88
2022-07-26T15:46:19.699Z,97946.81
2022-07-26T15:48:51.890Z,97951.97
2022-07-26T15:51:24.835Z,97946.97
2022-07-26T15:53:55.105Z,97951.88
2022-07-26T15:56:27.912Z,97957.84
2022-07-26T15:58:57.868Z,97952.84
2022-07-26T16:01:28.050Z,97955.03
2022-07-26T16:03:58.549Z,97951.94
2022-07-26T16:06:28.570Z,97942.78
2022-07-26T16:09:15.892Z,97952.09
2022-07-26T16:11:49.646Z,97941.63
2022-07-26T16:14:20.503Z,97943.66
2022-07-26T16:16:51.184Z,97941.91
2022-07-26T16:19:21.491Z,97930.22
2022-07-26T16:21:51.587Z,97934.66
2022-07-26T16:24:21.839Z,97929.53
2022-07-26T16:26:54.732Z,97923.66
2022-07-26T16:29:25.163Z,97921.78
2022-07-26T16:31:56.270Z,97929.88
2022-07-26T16:34:27.451Z,97935.91
2022-07-26T16:36:57.535Z,97924.97
2022-07-26T16:39:27.598Z,97931.97
2022-07-26T16:42:04.706Z,97934.78
2022-07-26T16:44:37.038Z,97932.06
2022-07-26T16:47:07.379Z,97940.63
2022-07-26T16:49:37.712Z,97935.19
2022-07-26T16:52:09.477Z,97935.38
2022-07-26T16:54:39.470Z,97931.66
2022-07-26T16:57:12.327Z,97926.94
2022-07-26T16:59:42.428Z,97922.56
2022-07-26T17:02:12.631Z,97930.22
2022-07-26T17:04:42.654Z,97933.34
2022-07-26T17:07:25.191Z,97932.13
2022-07-26T17:09:56.551Z,97932.19
2022-07-26T17:12:29.643Z,97927.09
2022-07-26T17:15:01.381Z,97929.22
2022-07-26T17:17:31.521Z,97925.00
2022-07-26T17:20:01.676Z,97923.94
2022-07-26T17:22:31.876Z,97921.63
2022-07-26T17:25:01.991Z,97922.06
2022-07-26T17:27:35.545Z,97922.84
2022-07-26T17:30:07.073Z,97923.22
2022-07-26T17:32:38.121Z,97929.50
2022-07-26T17:35:10.892Z,97927.91
2022-07-26T17:37:40.942Z,97916.69
2022-07-26T17:40:13.634Z,97925.63
2022-07-26T17:42:48.970Z,97916.13
2022-07-26T17:45:19.198Z,97918.53
2022-07-26T17:47:49.206Z,97928.38
2022-07-26T17:50:35.861Z,97923.06
2022-07-26T17:53:07.447Z,97933.00
2022-07-26T17:55:37.646Z,97923.56
2022-07-26T17:58:10.243Z,97924.78
2022-07-26T18:00:40.746Z,97928.09
2022-07-26T18:03:11.194Z,97919.50
2022-07-26T18:05:41.663Z,97925.84
2022-07-26T18:08:11.704Z,97930.41
2022-07-26T18:10:43.693Z,97918.28
2022-07-26T18:13:19.001Z,97922.94
2022-07-26T18:15:49.986Z,97912.31
2022-07-26T18:18:20.233Z,97910.00
2022-07-26T18:20:50.561Z,97921.16
2022-07-26T18:23:20.648Z,97912.69
2022-07-26T18:25:50.991Z,97914.31
2022-07-26T18:28:23.702Z,97912.31
2022-07-26T18:30:54.068Z,97909.81
2022-07-26T18:33:24.106Z,97910.84
2022-07-26T18:35:57.037Z,97916.88
2022-07-26T18:38:27.165Z,97912.22
2022-07-26T18:40:57.576Z,97915.94
2022-07-26T18:43:30.188Z,97915.53
2022-07-26T18:46:05.571Z,97913.31
2022-07-26T18:48:36.680Z,97915.88
2022-07-26T18:51:11.670Z,97911.63
2022-07-26T18:53:41.841Z,97917.25
2022-07-26T18:56:11.885Z,97917.88
2022-07-26T18:58:44.453Z,97913.31
2022-07-26T19:01:14.656Z,97918.16
2022-07-26T19:03:45.188Z,97923.47
2022-07-26T19:06:15.314Z,97921.25
2022-07-26T19:08:45.513Z,97942.34
2022-07-26T19:11:15.496Z,97938.19
2022-07-26T19:13:48.113Z,97944.44
2022-07-26T19:16:18.994Z,97945.78
2022-07-26T19:18:52.732Z,97941.50
2022-07-26T19:21:25.722Z,97947.78
2022-07-26T19:23:55.904Z,97950.41
2022-07-26T19:26:27.593Z,97953.53
2022-07-26T19:29:00.544Z,97965.53
2022-07-26T19:31:30.702Z,97964.56
2022-07-26T19:34:00.798Z,97967.72
2022-07-26T19:36:30.810Z,97975.25
2022-07-26T19:39:01.315Z,97977.84
2022-07-26T19:41:31.485Z,97976.78
2022-07-26T19:44:04.486Z,97975.50
2022-07-26T19:46:35.733Z,97984.88
2022-07-26T19:49:06.673Z,97993.69
2022-07-26T19:51:36.715Z,97995.56
2022-07-26T19:54:07.051Z,97994.75
2022-07-26T19:56:41.829Z,97993.22
2022-07-26T19:59:19.497Z,97991.91
2022-07-26T20:01:56.619Z,97997.66
2022-07-26T20:04:28.710Z,97993.78
2022-07-26T20:06:58.773Z,97999.25
2022-07-26T20:09:29.885Z,98002.91
2022-07-26T20:12:01.032Z,98005.22
2022-07-26T20:14:33.703Z,98004.75
2022-07-26T20:17:03.778Z,98001.91
2022-07-26T20:19:43.813Z,98009.44
2022-07-26T20:22:14.326Z,97997.53
2022-07-26T20:24:44.263Z,98001.69
2022-07-26T20:27:14.246Z,98010.72
2022-07-26T20:29:46.973Z,98017.22
2022-07-26T20:32:17.265Z,98006.31
2022-07-26T20:34:47.739Z,98000.88
2022-07-26T20:37:17.742Z,98001.94
2022-07-26T20:39:47.933Z,98012.31
2022-07-26T20:42:21.629Z,98003.47
2022-07-26T20:44:55.424Z,97999.56
2022-07-26T20:47:25.509Z,97996.97
2022-07-26T20:49:59.652Z,98011.72
2022-07-26T20:52:32.782Z,98007.28
2022-07-26T20:55:03.085Z,98006.22
2022-07-26T20:57:33.133Z,98002.34
2022-07-26T21:00:09.339Z,98005.69
2022-07-26T21:02:39.781Z,98009.06
2022-07-26T21:05:13.548Z,98004.13
2022-07-26T21:07:59.575Z,98007.22
2022-07-26T21:10:30.710Z,98007.16
2022-07-26T21:13:01.115Z,98006.66
2022-07-26T21:15:34.378Z,98009.22
2022-07-26T21:18:04.546Z,98008.66
2022-07-26T21:20:35.342Z,98006.34
2022-07-26T21:25:30.886Z,98009.94
2022-07-26T21:28:01.152Z,98000.56
2022-07-26T21:30:33.826Z,98005.44
2022-07-26T21:33:03.921Z,97999.50
2022-07-26T21:35:35.457Z,98005.66
2022-07-26T21:38:05.588Z,98005.91
2022-07-26T21:40:35.797Z,98009.50
2022-07-26T21:43:05.815Z,98004.91
2022-07-26T21:45:38.461Z,98009.50
2022-07-26T21:48:09.697Z,98009.13
2022-07-26T21:50:39.695Z,98007.81
2022-07-26T21:53:09.815Z,98014.19
2022-07-26T21:55:39.796Z,98006.13
2022-07-26T21:58:10.181Z,98004.22
2022-07-26T22:00:43.340Z,98010.66
2022-07-26T22:03:13.404Z,98011.56
2022-07-26T22:05:45.346Z,98011.50
2022-07-26T22:08:18.107Z,98011.94
2022-07-26T22:10:48.383Z,98012.34
2022-07-26T22:13:19.194Z,98013.59
2022-07-26T22:15:52.245Z,98015.56
2022-07-26T22:18:22.434Z,98017.31
2022-07-26T22:20:52.929Z,98020.56
2022-07-26T22:23:30.126Z,98017.88
2022-07-26T22:26:01.942Z,98021.50
2022-07-26T22:28:32.706Z,98016.22
2022-07-26T22:31:05.303Z,98014.66
2022-07-26T22:33:35.339Z,98013.63
2022-07-26T22:36:05.286Z,98015.81
2022-07-26T22:38:35.290Z,98017.84
2022-07-26T22:41:05.281Z,98020.97
2022-07-26T22:43:35.291Z,98013.09
2022-07-26T22:46:07.901Z,98015.88
2022-07-26T22:48:38.927Z,98015.94
2022-07-26T22:51:09.886Z,98012.75
2022-07-26T22:53:39.907Z,98016.34
2022-07-26T22:56:09.885Z,98013.28
2022-07-26T22:58:41.695Z,98006.94
2022-07-26T23:01:16.653Z,98015.50
2022-07-26T23:03:49.777Z,98019.16
2022-07-26T23:06:31.601Z,98016.09
2022-07-26T23:09:02.351Z,98018.09
2022-07-26T23:11:32.915Z,98018.22
2022-07-26T23:14:03.150Z,98018.44
2022-07-26T23:16:35.805Z,98017.78
2022-07-26T23:19:06.165Z,98014.53
2022-07-26T23:21:36.363Z,98019.09
2022-07-26T23:24:06.504Z,98016.44
2022-07-26T23:26:36.489Z,98011.84
2022-07-26T23:29:08.608Z,98022.66
2022-07-26T23:31:42.224Z,98014.09
2022-07-26T23:34:12.270Z,98020.19
2022-07-26T23:36:42.209Z,98019.56
2022-07-26T23:39:12.656Z,98018.00
2022-07-26T23:41:43.086Z,98023.78
2022-07-26T23:44:13.105Z,98024.50
2022-07-26T23:47:03.440Z,98025.44
2022-07-26T23:49:33.641Z,98020.81
2022-07-26T23:52:03.718Z,98027.84
2022-07-26T23:54:33.688Z,98023.75
2022-07-26T23:57:18.571Z,98023.16
2022-07-26T23:59:48.533Z,98020.47
